sensor_id;sensor_type;location;lat;lon;timestamp;P1;durP1;ratioP1;P2;durP2;ratioP2
16543;SDS011;8384;47.996;7.786;2023-06-26T00:00:43;6.17;;;5.67;;
16543;SDS011;8384;47.996;7.786;2023-06-26T00:03:08;6.57;;;6.07;;
16543;SDS011;8384;47.996;7.786;2023-06-26T00:05:33;6.43;;;5.90;;
16543;SDS011;8384;47.996;7.786;2023-06-26T00:07:59;6.33;;;5.83;;
16543;SDS011;8384;47.996;7.786;2023-06-26T00:10:25;6.70;;;6.10;;
16543;SDS011;8384;47.996;7.786;2023-06-26T00:12:53;6.50;;;5.90;;
16543;SDS011;8384;47.996;7.786;2023-06-26T00:15:19;5.97;;;5.33;;
16543;SDS011;8384;47.996;7.786;2023-06-26T00:17:45;6.47;;;5.87;;
16543;SDS011;8384;47.996;7.786;2023-06-26T00:20:11;6.37;;;5.87;;
16543;SDS011;8384;47.996;7.786;2023-06-26T00:22:36;6.30;;;5.80;;
16543;SDS011;8384;47.996;7.786;2023-06-26T00:25:05;6.67;;;6.07;;
16543;SDS011;8384;47.996;7.786;2023-06-26T00:27:31;5.93;;;5.37;;
16543;SDS011;8384;47.996;7.786;2023-06-26T00:29:56;7.30;;;6.70;;
16543;SDS011;8384;47.996;7.786;2023-06-26T00:32:21;6.17;;;5.67;;
16543;SDS011;8384;47.996;7.786;2023-06-26T00:34:47;6.87;;;6.30;;
16543;SDS011;8384;47.996;7.786;2023-06-26T00:37:12;6.40;;;5.83;;
16543;SDS011;8384;47.996;7.786;2023-06-26T00:39:37;6.67;;;6.03;;
16543;SDS011;8384;47.996;7.786;2023-06-26T00:42:03;6.67;;;6.17;;
16543;SDS011;8384;47.996;7.786;2023-06-26T00:44:28;6.78;;;6.28;;
16543;SDS011;8384;47.996;7.786;2023-06-26T00:46:53;6.63;;;6.13;;
16543;SDS011;8384;47.996;7.786;2023-06-26T00:49:18;6.67;;;6.17;;
16543;SDS011;8384;47.996;7.786;2023-06-26T00:51:44;6.20;;;5.80;;
16543;SDS011;8384;47.996;7.786;2023-06-26T00:54:09;5.90;;;5.40;;
16543;SDS011;8384;47.996;7.786;2023-06-26T00:56:35;6.27;;;5.77;;
16543;SDS011;8384;47.996;7.786;2023-06-26T00:59:01;6.13;;;5.63;;
16543;SDS011;8384;47.996;7.786;2023-06-26T01:01:27;6.40;;;5.90;;
16543;SDS011;8384;47.996;7.786;2023-06-26T01:03:53;6.13;;;5.63;;
16543;SDS011;8384;47.996;7.786;2023-06-26T01:06:20;7.20;;;6.60;;
16543;SDS011;8384;47.996;7.786;2023-06-26T01:08:47;6.57;;;6.07;;
16543;SDS011;8384;47.996;7.786;2023-06-26T01:11:13;6.27;;;5.77;;
16543;SDS011;8384;47.996;7.786;2023-06-26T01:13:39;6.27;;;5.77;;
16543;SDS011;8384;47.996;7.786;2023-06-26T01:16:06;6.50;;;6.00;;
16543;SDS011;8384;47.996;7.786;2023-06-26T01:18:32;6.83;;;6.13;;
16543;SDS011;8384;47.996;7.786;2023-06-26T01:20:58;6.57;;;5.97;;
16543;SDS011;8384;47.996;7.786;2023-06-26T01:23:40;6.80;;;6.30;;
16543;SDS011;8384;47.996;7.786;2023-06-26T01:26:26;6.53;;;6.03;;
16543;SDS011;8384;47.996;7.786;2023-06-26T01:28:53;6.90;;;6.30;;
16543;SDS011;8384;47.996;7.786;2023-06-26T01:31:19;7.00;;;6.40;;
16543;SDS011;8384;47.996;7.786;2023-06-26T01:33:44;6.70;;;6.20;;
16543;SDS011;8384;47.996;7.786;2023-06-26T01:36:11;7.13;;;6.57;;
16543;SDS011;8384;47.996;7.786;2023-06-26T01:38:36;7.20;;;6.60;;
16543;SDS011;8384;47.996;7.786;2023-06-26T01:41:02;6.63;;;6.13;;
16543;SDS011;8384;47.996;7.786;2023-06-26T01:43:35;6.53;;;6.03;;
16543;SDS011;8384;47.996;7.786;2023-06-26T01:46:24;6.57;;;6.07;;
16543;SDS011;8384;47.996;7.786;2023-06-26T01:51:32;6.73;;;6.13;;
16543;SDS011;8384;47.996;7.786;2023-06-26T01:54:07;6.80;;;6.30;;
16543;SDS011;8384;47.996;7.786;2023-06-26T01:56:36;6.70;;;6.20;;
16543;SDS011;8384;47.996;7.786;2023-06-26T01:59:03;7.00;;;6.43;;
16543;SDS011;8384;47.996;7.786;2023-06-26T02:01:30;6.67;;;6.07;;
16543;SDS011;8384;47.996;7.786;2023-06-26T02:03:58;6.73;;;6.23;;
16543;SDS011;8384;47.996;7.786;2023-06-26T02:06:23;7.07;;;6.57;;
16543;SDS011;8384;47.996;7.786;2023-06-26T02:08:48;6.90;;;6.40;;
16543;SDS011;8384;47.996;7.786;2023-06-26T02:11:14;6.53;;;6.03;;
16543;SDS011;8384;47.996;7.786;2023-06-26T02:13:39;7.03;;;6.53;;
16543;SDS011;8384;47.996;7.786;2023-06-26T02:16:04;7.20;;;6.60;;
16543;SDS011;8384;47.996;7.786;2023-06-26T02:18:29;6.87;;;6.37;;
16543;SDS011;8384;47.996;7.786;2023-06-26T02:20:55;6.10;;;5.60;;
16543;SDS011;8384;47.996;7.786;2023-06-26T02:23:20;6.80;;;6.20;;
16543;SDS011;8384;47.996;7.786;2023-06-26T02:25:45;7.30;;;6.70;;
16543;SDS011;8384;47.996;7.786;2023-06-26T02:28:11;6.87;;;6.20;;
16543;SDS011;8384;47.996;7.786;2023-06-26T02:30:36;7.50;;;6.90;;
16543;SDS011;8384;47.996;7.786;2023-06-26T02:33:01;6.83;;;6.20;;
16543;SDS011;8384;47.996;7.786;2023-06-26T02:35:26;6.70;;;6.17;;
16543;SDS011;8384;47.996;7.786;2023-06-26T02:37:52;6.73;;;6.23;;
16543;SDS011;8384;47.996;7.786;2023-06-26T02:40:17;6.17;;;5.67;;
16543;SDS011;8384;47.996;7.786;2023-06-26T02:42:42;6.33;;;5.83;;
16543;SDS011;8384;47.996;7.786;2023-06-26T02:45:08;6.63;;;6.13;;
16543;SDS011;8384;47.996;7.786;2023-06-26T02:47:34;6.80;;;6.30;;
16543;SDS011;8384;47.996;7.786;2023-06-26T02:49:59;6.70;;;6.20;;
16543;SDS011;8384;47.996;7.786;2023-06-26T02:52:24;6.60;;;6.03;;
16543;SDS011;8384;47.996;7.786;2023-06-26T02:54:49;6.53;;;5.97;;
16543;SDS011;8384;47.996;7.786;2023-06-26T02:57:15;6.33;;;5.83;;
16543;SDS011;8384;47.996;7.786;2023-06-26T02:59:42;6.73;;;6.13;;
16543;SDS011;8384;47.996;7.786;2023-06-26T03:02:07;6.37;;;5.77;;
16543;SDS011;8384;47.996;7.786;2023-06-26T03:04:32;7.10;;;6.50;;
16543;SDS011;8384;47.996;7.786;2023-06-26T03:07:01;6.97;;;6.37;;
16543;SDS011;8384;47.996;7.786;2023-06-26T03:09:26;6.57;;;6.07;;
16543;SDS011;8384;47.996;7.786;2023-06-26T03:11:52;7.27;;;6.67;;
16543;SDS011;8384;47.996;7.786;2023-06-26T03:14:18;6.80;;;6.20;;
16543;SDS011;8384;47.996;7.786;2023-06-26T03:16:43;7.70;;;6.90;;
16543;SDS011;8384;47.996;7.786;2023-06-26T03:19:08;6.70;;;6.10;;
16543;SDS011;8384;47.996;7.786;2023-06-26T03:21:34;6.80;;;6.27;;
16543;SDS011;8384;47.996;7.786;2023-06-26T03:23:59;6.40;;;5.90;;
16543;SDS011;8384;47.996;7.786;2023-06-26T03:26:24;7.30;;;6.70;;
16543;SDS011;8384;47.996;7.786;2023-06-26T03:28:52;6.97;;;6.37;;
16543;SDS011;8384;47.996;7.786;2023-06-26T03:31:18;6.63;;;6.13;;
16543;SDS011;8384;47.996;7.786;2023-06-26T03:33:43;6.57;;;6.07;;
16543;SDS011;8384;47.996;7.786;2023-06-26T03:36:09;7.30;;;6.73;;
16543;SDS011;8384;47.996;7.786;2023-06-26T03:38:34;6.93;;;6.43;;
16543;SDS011;8384;47.996;7.786;2023-06-26T03:40:59;7.03;;;6.53;;
16543;SDS011;8384;47.996;7.786;2023-06-26T03:43:24;6.87;;;6.37;;
16543;SDS011;8384;47.996;7.786;2023-06-26T03:45:50;6.93;;;6.33;;
16543;SDS011;8384;47.996;7.786;2023-06-26T03:48:15;6.90;;;6.40;;
16543;SDS011;8384;47.996;7.786;2023-06-26T03:50:40;7.00;;;6.50;;
16543;SDS011;8384;47.996;7.786;2023-06-26T03:53:06;6.40;;;5.90;;
16543;SDS011;8384;47.996;7.786;2023-06-26T03:55:31;6.57;;;6.07;;
16543;SDS011;8384;47.996;7.786;2023-06-26T03:57:56;7.07;;;6.57;;
16543;SDS011;8384;47.996;7.786;2023-06-26T04:00:21;7.20;;;6.60;;
16543;SDS011;8384;47.996;7.786;2023-06-26T04:02:47;6.97;;;6.37;;
16543;SDS011;8384;47.996;7.786;2023-06-26T04:05:12;6.80;;;6.23;;
16543;SDS011;8384;47.996;7.786;2023-06-26T04:07:37;7.13;;;6.57;;
16543;SDS011;8384;47.996;7.786;2023-06-26T04:10:03;6.30;;;5.90;;
16543;SDS011;8384;47.996;7.786;2023-06-26T04:12:28;6.90;;;6.30;;
16543;SDS011;8384;47.996;7.786;2023-06-26T04:14:53;7.20;;;6.50;;
16543;SDS011;8384;47.996;7.786;2023-06-26T04:17:19;6.43;;;5.93;;
16543;SDS011;8384;47.996;7.786;2023-06-26T04:19:44;7.25;;;6.60;;
16543;SDS011;8384;47.996;7.786;2023-06-26T04:22:10;7.10;;;6.60;;
16543;SDS011;8384;47.996;7.786;2023-06-26T04:24:35;6.57;;;6.07;;
16543;SDS011;8384;47.996;7.786;2023-06-26T04:27:00;7.00;;;6.40;;
16543;SDS011;8384;47.996;7.786;2023-06-26T04:29:26;7.40;;;6.70;;
16543;SDS011;8384;47.996;7.786;2023-06-26T04:31:52;6.90;;;6.40;;
16543;SDS011;8384;47.996;7.786;2023-06-26T04:34:22;8.00;;;6.40;;
16543;SDS011;8384;47.996;7.786;2023-06-26T04:36:51;7.20;;;6.60;;
16543;SDS011;8384;47.996;7.786;2023-06-26T04:39:16;6.63;;;6.13;;
16543;SDS011;8384;47.996;7.786;2023-06-26T04:41:42;6.73;;;6.17;;
16543;SDS011;8384;47.996;7.786;2023-06-26T04:44:07;7.13;;;6.50;;
16543;SDS011;8384;47.996;7.786;2023-06-26T04:46:33;6.75;;;6.25;;
16543;SDS011;8384;47.996;7.786;2023-06-26T04:48:58;7.20;;;6.70;;
16543;SDS011;8384;47.996;7.786;2023-06-26T04:51:24;7.20;;;6.60;;
16543;SDS011;8384;47.996;7.786;2023-06-26T04:53:51;7.43;;;6.82;;
16543;SDS011;8384;47.996;7.786;2023-06-26T04:56:17;7.90;;;7.30;;
16543;SDS011;8384;47.996;7.786;2023-06-26T04:58:42;8.20;;;7.57;;
16543;SDS011;8384;47.996;7.786;2023-06-26T05:01:07;6.93;;;6.33;;
16543;SDS011;8384;47.996;7.786;2023-06-26T05:03:33;6.60;;;6.20;;
16543;SDS011;8384;47.996;7.786;2023-06-26T05:05:59;7.43;;;6.82;;
16543;SDS011;8384;47.996;7.786;2023-06-26T05:08:24;6.97;;;6.47;;
16543;SDS011;8384;47.996;7.786;2023-06-26T05:10:51;7.78;;;6.90;;
16543;SDS011;8384;47.996;7.786;2023-06-26T05:13:18;7.28;;;6.68;;
16543;SDS011;8384;47.996;7.786;2023-06-26T05:15:45;6.93;;;6.30;;
16543;SDS011;8384;47.996;7.786;2023-06-26T05:18:11;7.25;;;6.65;;
16543;SDS011;8384;47.996;7.786;2023-06-26T05:20:37;6.83;;;6.23;;
16543;SDS011;8384;47.996;7.786;2023-06-26T05:23:03;6.82;;;6.32;;
16543;SDS011;8384;47.996;7.786;2023-06-26T05:25:29;7.28;;;6.68;;
16543;SDS011;8384;47.996;7.786;2023-06-26T05:27:59;7.10;;;6.50;;
16543;SDS011;8384;47.996;7.786;2023-06-26T05:30:25;7.18;;;6.57;;
16543;SDS011;8384;47.996;7.786;2023-06-26T05:32:51;6.40;;;5.90;;
16543;SDS011;8384;47.996;7.786;2023-06-26T05:35:18;7.32;;;6.68;;
16543;SDS011;8384;47.996;7.786;2023-06-26T05:37:45;7.03;;;6.40;;
16543;SDS011;8384;47.996;7.786;2023-06-26T05:40:13;6.83;;;6.23;;
16543;SDS011;8384;47.996;7.786;2023-06-26T05:42:39;6.90;;;6.40;;
16543;SDS011;8384;47.996;7.786;2023-06-26T05:45:05;7.00;;;6.43;;
16543;SDS011;8384;47.996;7.786;2023-06-26T05:47:30;7.73;;;6.13;;
16543;SDS011;8384;47.996;7.786;2023-06-26T05:49:56;6.83;;;6.23;;
16543;SDS011;8384;47.996;7.786;2023-06-26T05:52:21;7.00;;;6.40;;
16543;SDS011;8384;47.996;7.786;2023-06-26T05:54:47;6.60;;;6.10;;
16543;SDS011;8384;47.996;7.786;2023-06-26T05:57:13;7.03;;;6.50;;
16543;SDS011;8384;47.996;7.786;2023-06-26T05:59:39;6.57;;;6.07;;
16543;SDS011;8384;47.996;7.786;2023-06-26T06:02:05;6.80;;;6.30;;
16543;SDS011;8384;47.996;7.786;2023-06-26T06:04:30;6.75;;;6.25;;
16543;SDS011;8384;47.996;7.786;2023-06-26T06:06:56;6.90;;;6.40;;
16543;SDS011;8384;47.996;7.786;2023-06-26T06:09:21;7.13;;;6.53;;
16543;SDS011;8384;47.996;7.786;2023-06-26T06:11:46;6.73;;;6.03;;
16543;SDS011;8384;47.996;7.786;2023-06-26T06:14:11;6.83;;;6.23;;
16543;SDS011;8384;47.996;7.786;2023-06-26T06:16:37;7.00;;;6.30;;
16543;SDS011;8384;47.996;7.786;2023-06-26T06:19:02;7.17;;;6.50;;
16543;SDS011;8384;47.996;7.786;2023-06-26T06:21:28;7.17;;;6.63;;
16543;SDS011;8384;47.996;7.786;2023-06-26T06:23:53;7.20;;;6.50;;
16543;SDS011;8384;47.996;7.786;2023-06-26T06:26:19;6.80;;;6.30;;
16543;SDS011;8384;47.996;7.786;2023-06-26T06:28:44;6.77;;;6.20;;
16543;SDS011;8384;47.996;7.786;2023-06-26T06:31:09;7.17;;;6.57;;
16543;SDS011;8384;47.996;7.786;2023-06-26T06:33:34;7.23;;;6.10;;
16543;SDS011;8384;47.996;7.786;2023-06-26T06:36:00;6.60;;;6.10;;
16543;SDS011;8384;47.996;7.786;2023-06-26T06:38:25;6.37;;;5.87;;
16543;SDS011;8384;47.996;7.786;2023-06-26T06:40:50;6.87;;;6.37;;
16543;SDS011;8384;47.996;7.786;2023-06-26T06:43:16;6.87;;;6.27;;
16543;SDS011;8384;47.996;7.786;2023-06-26T06:45:41;6.10;;;5.60;;
16543;SDS011;8384;47.996;7.786;2023-06-26T06:48:06;6.40;;;5.90;;
16543;SDS011;8384;47.996;7.786;2023-06-26T06:50:31;7.00;;;6.30;;
16543;SDS011;8384;47.996;7.786;2023-06-26T06:52:57;6.43;;;5.93;;
16543;SDS011;8384;47.996;7.786;2023-06-26T06:55:22;6.07;;;5.57;;
16543;SDS011;8384;47.996;7.786;2023-06-26T06:57:48;7.00;;;6.40;;
16543;SDS011;8384;47.996;7.786;2023-06-26T07:00:15;6.93;;;6.33;;
16543;SDS011;8384;47.996;7.786;2023-06-26T07:02:42;7.17;;;6.57;;
16543;SDS011;8384;47.996;7.786;2023-06-26T07:05:09;6.70;;;6.10;;
16543;SDS011;8384;47.996;7.786;2023-06-26T07:07:35;6.37;;;5.87;;
16543;SDS011;8384;47.996;7.786;2023-06-26T07:10:11;6.50;;;6.00;;
16543;SDS011;8384;47.996;7.786;2023-06-26T07:12:38;6.63;;;6.10;;
16543;SDS011;8384;47.996;7.786;2023-06-26T07:15:03;6.50;;;5.90;;
16543;SDS011;8384;47.996;7.786;2023-06-26T07:17:30;6.40;;;6.00;;
16543;SDS011;8384;47.996;7.786;2023-06-26T07:19:56;6.67;;;6.10;;
16543;SDS011;8384;47.996;7.786;2023-06-26T07:22:22;6.80;;;6.20;;
16543;SDS011;8384;47.996;7.786;2023-06-26T07:24:48;6.40;;;5.90;;
16543;SDS011;8384;47.996;7.786;2023-06-26T07:27:16;7.17;;;6.57;;
16543;SDS011;8384;47.996;7.786;2023-06-26T07:29:43;6.60;;;6.00;;
16543;SDS011;8384;47.996;7.786;2023-06-26T07:32:09;6.73;;;6.13;;
16543;SDS011;8384;47.996;7.786;2023-06-26T07:34:34;7.00;;;6.30;;
16543;SDS011;8384;47.996;7.786;2023-06-26T07:37:00;7.00;;;6.40;;
16543;SDS011;8384;47.996;7.786;2023-06-26T07:39:25;6.73;;;6.23;;
16543;SDS011;8384;47.996;7.786;2023-06-26T07:41:50;6.50;;;5.90;;
16543;SDS011;8384;47.996;7.786;2023-06-26T07:44:16;6.73;;;6.20;;
16543;SDS011;8384;47.996;7.786;2023-06-26T07:46:41;6.13;;;5.70;;
16543;SDS011;8384;47.996;7.786;2023-06-26T07:49:06;6.77;;;6.27;;
16543;SDS011;8384;47.996;7.786;2023-06-26T07:51:32;6.40;;;5.90;;
16543;SDS011;8384;47.996;7.786;2023-06-26T07:53:57;7.07;;;6.40;;
16543;SDS011;8384;47.996;7.786;2023-06-26T07:56:22;6.87;;;6.37;;
16543;SDS011;8384;47.996;7.786;2023-06-26T07:58:47;6.53;;;6.00;;
16543;SDS011;8384;47.996;7.786;2023-06-26T08:01:13;7.30;;;6.80;;
16543;SDS011;8384;47.996;7.786;2023-06-26T08:03:38;7.13;;;6.33;;
16543;SDS011;8384;47.996;7.786;2023-06-26T08:06:03;6.87;;;6.37;;
16543;SDS011;8384;47.996;7.786;2023-06-26T08:08:29;7.40;;;6.80;;
16543;SDS011;8384;47.996;7.786;2023-06-26T08:10:54;6.80;;;6.30;;
16543;SDS011;8384;47.996;7.786;2023-06-26T08:13:20;7.27;;;6.70;;
16543;SDS011;8384;47.996;7.786;2023-06-26T08:15:45;7.17;;;6.37;;
16543;SDS011;8384;47.996;7.786;2023-06-26T08:18:10;7.80;;;6.93;;
16543;SDS011;8384;47.996;7.786;2023-06-26T08:20:35;7.40;;;6.80;;
16543;SDS011;8384;47.996;7.786;2023-06-26T08:23:02;7.25;;;6.55;;
16543;SDS011;8384;47.996;7.786;2023-06-26T08:25:28;7.73;;;6.97;;
16543;SDS011;8384;47.996;7.786;2023-06-26T08:27:54;7.53;;;6.93;;
16543;SDS011;8384;47.996;7.786;2023-06-26T08:30:20;7.33;;;6.73;;
16543;SDS011;8384;47.996;7.786;2023-06-26T08:32:45;7.50;;;6.73;;
16543;SDS011;8384;47.996;7.786;2023-06-26T08:35:11;7.70;;;7.10;;
16543;SDS011;8384;47.996;7.786;2023-06-26T08:37:37;8.00;;;7.20;;
16543;SDS011;8384;47.996;7.786;2023-06-26T08:40:02;7.77;;;6.93;;
16543;SDS011;8384;47.996;7.786;2023-06-26T08:42:29;8.07;;;7.28;;
16543;SDS011;8384;47.996;7.786;2023-06-26T08:44:54;7.87;;;7.23;;
16543;SDS011;8384;47.996;7.786;2023-06-26T08:47:19;8.03;;;7.33;;
16543;SDS011;8384;47.996;7.786;2023-06-26T08:52:40;8.10;;;7.40;;
16543;SDS011;8384;47.996;7.786;2023-06-26T08:55:10;7.47;;;6.88;;
16543;SDS011;8384;47.996;7.786;2023-06-26T08:57:40;8.35;;;7.70;;
16543;SDS011;8384;47.996;7.786;2023-06-26T09:00:05;8.43;;;7.47;;
16543;SDS011;8384;47.996;7.786;2023-06-26T09:02:33;8.45;;;7.65;;
16543;SDS011;8384;47.996;7.786;2023-06-26T09:04:58;7.97;;;7.30;;
16543;SDS011;8384;47.996;7.786;2023-06-26T09:07:24;8.50;;;7.80;;
16543;SDS011;8384;47.996;7.786;2023-06-26T09:09:49;7.70;;;7.10;;
16543;SDS011;8384;47.996;7.786;2023-06-26T09:12:14;8.07;;;7.37;;
16543;SDS011;8384;47.996;7.786;2023-06-26T09:14:40;7.80;;;7.20;;
16543;SDS011;8384;47.996;7.786;2023-06-26T09:17:06;7.77;;;7.07;;
16543;SDS011;8384;47.996;7.786;2023-06-26T09:19:31;7.97;;;7.37;;
16543;SDS011;8384;47.996;7.786;2023-06-26T09:21:57;9.03;;;8.10;;
16543;SDS011;8384;47.996;7.786;2023-06-26T09:24:22;8.87;;;6.97;;
16543;SDS011;8384;47.996;7.786;2023-06-26T09:26:48;7.87;;;7.27;;
16543;SDS011;8384;47.996;7.786;2023-06-26T09:29:14;8.27;;;7.55;;
16543;SDS011;8384;47.996;7.786;2023-06-26T09:31:40;8.45;;;7.75;;
16543;SDS011;8384;47.996;7.786;2023-06-26T09:34:06;8.23;;;7.53;;
16543;SDS011;8384;47.996;7.786;2023-06-26T09:36:31;9.13;;;7.90;;
16543;SDS011;8384;47.996;7.786;2023-06-26T09:38:58;8.27;;;7.57;;
16543;SDS011;8384;47.996;7.786;2023-06-26T09:41:24;8.75;;;8.05;;
16543;SDS011;8384;47.996;7.786;2023-06-26T09:43:50;8.60;;;7.73;;
16543;SDS011;8384;47.996;7.786;2023-06-26T09:46:16;8.35;;;7.57;;
16543;SDS011;8384;47.996;7.786;2023-06-26T09:48:42;8.48;;;7.65;;
16543;SDS011;8384;47.996;7.786;2023-06-26T09:51:08;8.40;;;7.60;;
16543;SDS011;8384;47.996;7.786;2023-06-26T09:53:35;8.57;;;7.88;;
16543;SDS011;8384;47.996;7.786;2023-06-26T09:56:07;7.70;;;7.18;;
16543;SDS011;8384;47.996;7.786;2023-06-26T09:58:38;7.97;;;7.30;;
16543;SDS011;8384;47.996;7.786;2023-06-26T10:01:05;7.85;;;7.28;;
16543;SDS011;8384;47.996;7.786;2023-06-26T10:03:32;7.35;;;6.78;;
16543;SDS011;8384;47.996;7.786;2023-06-26T10:05:57;8.27;;;7.57;;
16543;SDS011;8384;47.996;7.786;2023-06-26T10:08:25;7.97;;;7.32;;
16543;SDS011;8384;47.996;7.786;2023-06-26T10:10:51;8.18;;;7.53;;
16543;SDS011;8384;47.996;7.786;2023-06-26T10:13:20;8.35;;;7.65;;
16543;SDS011;8384;47.996;7.786;2023-06-26T10:15:47;8.10;;;7.35;;
16543;SDS011;8384;47.996;7.786;2023-06-26T10:18:16;8.00;;;7.30;;
16543;SDS011;8384;47.996;7.786;2023-06-26T10:20:44;8.18;;;7.50;;
16543;SDS011;8384;47.996;7.786;2023-06-26T10:23:13;8.23;;;7.43;;
16543;SDS011;8384;47.996;7.786;2023-06-26T10:25:40;8.23;;;7.55;;
16543;SDS011;8384;47.996;7.786;2023-06-26T10:28:09;8.32;;;7.53;;
16543;SDS011;8384;47.996;7.786;2023-06-26T10:30:36;8.20;;;7.50;;
16543;SDS011;8384;47.996;7.786;2023-06-26T10:33:04;7.85;;;7.25;;
16543;SDS011;8384;47.996;7.786;2023-06-26T10:35:31;8.10;;;7.40;;
16543;SDS011;8384;47.996;7.786;2023-06-26T10:38:00;8.27;;;7.53;;
16543;SDS011;8384;47.996;7.786;2023-06-26T10:40:44;8.25;;;7.60;;
16543;SDS011;8384;47.996;7.786;2023-06-26T10:43:11;8.30;;;7.55;;
16543;SDS011;8384;47.996;7.786;2023-06-26T10:45:42;8.20;;;7.50;;
16543;SDS011;8384;47.996;7.786;2023-06-26T10:48:09;8.47;;;7.70;;
16543;SDS011;8384;47.996;7.786;2023-06-26T10:50:34;8.07;;;7.47;;
16543;SDS011;8384;47.996;7.786;2023-06-26T10:53:14;8.50;;;7.80;;
16543;SDS011;8384;47.996;7.786;2023-06-26T10:56:03;8.23;;;7.63;;
16543;SDS011;8384;47.996;7.786;2023-06-26T11:03:37;8.32;;;7.63;;
16543;SDS011;8384;47.996;7.786;2023-06-26T11:06:08;8.45;;;7.60;;
16543;SDS011;8384;47.996;7.786;2023-06-26T11:08:48;8.40;;;7.60;;
16543;SDS011;8384;47.996;7.786;2023-06-26T11:11:20;8.30;;;7.70;;
16543;SDS011;8384;47.996;7.786;2023-06-26T11:13:46;8.00;;;7.35;;
16543;SDS011;8384;47.996;7.786;2023-06-26T11:16:13;7.80;;;7.20;;
16543;SDS011;8384;47.996;7.786;2023-06-26T11:18:40;8.25;;;7.53;;
16543;SDS011;8384;47.996;7.786;2023-06-26T11:23:31;8.52;;;7.72;;
16543;SDS011;8384;47.996;7.786;2023-06-26T11:26:12;9.02;;;8.23;;
16543;SDS011;8384;47.996;7.786;2023-06-26T11:28:50;8.20;;;7.60;;
16543;SDS011;8384;47.996;7.786;2023-06-26T11:31:28;8.63;;;7.82;;
16543;SDS011;8384;47.996;7.786;2023-06-26T11:33:58;8.45;;;7.65;;
16543;SDS011;8384;47.996;7.786;2023-06-26T11:36:25;8.30;;;7.60;;
16543;SDS011;8384;47.996;7.786;2023-06-26T11:38:54;8.35;;;7.65;;
16543;SDS011;8384;47.996;7.786;2023-06-26T11:41:24;8.75;;;7.90;;
16543;SDS011;8384;47.996;7.786;2023-06-26T11:43:51;8.23;;;7.53;;
16543;SDS011;8384;47.996;7.786;2023-06-26T11:46:17;8.82;;;8.02;;
16543;SDS011;8384;47.996;7.786;2023-06-26T11:48:45;8.85;;;7.95;;
16543;SDS011;8384;47.996;7.786;2023-06-26T11:51:12;8.43;;;7.73;;
16543;SDS011;8384;47.996;7.786;2023-06-26T11:53:41;8.52;;;7.85;;
16543;SDS011;8384;47.996;7.786;2023-06-26T11:56:08;8.65;;;8.02;;
16543;SDS011;8384;47.996;7.786;2023-06-26T11:58:57;8.15;;;7.53;;
16543;SDS011;8384;47.996;7.786;2023-06-26T12:01:26;8.40;;;7.70;;
16543;SDS011;8384;47.996;7.786;2023-06-26T12:03:54;7.70;;;7.10;;
16543;SDS011;8384;47.996;7.786;2023-06-26T12:06:23;7.53;;;7.03;;
16543;SDS011;8384;47.996;7.786;2023-06-26T12:08:48;7.30;;;6.70;;
16543;SDS011;8384;47.996;7.786;2023-06-26T12:11:14;7.47;;;6.78;;
16543;SDS011;8384;47.996;7.786;2023-06-26T12:13:39;6.70;;;6.20;;
16543;SDS011;8384;47.996;7.786;2023-06-26T12:16:05;7.17;;;6.60;;
16543;SDS011;8384;47.996;7.786;2023-06-26T12:18:36;7.07;;;6.47;;
16543;SDS011;8384;47.996;7.786;2023-06-26T12:21:02;6.67;;;6.07;;
16543;SDS011;8384;47.996;7.786;2023-06-26T12:23:33;6.43;;;6.03;;
16543;SDS011;8384;47.996;7.786;2023-06-26T12:26:19;6.37;;;5.87;;
16543;SDS011;8384;47.996;7.786;2023-06-26T12:28:46;6.43;;;5.93;;
16543;SDS011;8384;47.996;7.786;2023-06-26T12:31:12;6.33;;;5.93;;
16543;SDS011;8384;47.996;7.786;2023-06-26T12:33:44;7.07;;;6.30;;
16543;SDS011;8384;47.996;7.786;2023-06-26T12:36:10;7.47;;;6.77;;
16543;SDS011;8384;47.996;7.786;2023-06-26T12:38:37;6.33;;;5.83;;
16543;SDS011;8384;47.996;7.786;2023-06-26T12:41:02;7.30;;;5.90;;
16543;SDS011;8384;47.996;7.786;2023-06-26T12:43:27;6.40;;;5.90;;
16543;SDS011;8384;47.996;7.786;2023-06-26T12:45:56;6.53;;;5.87;;
16543;SDS011;8384;47.996;7.786;2023-06-26T12:48:21;6.60;;;5.90;;
16543;SDS011;8384;47.996;7.786;2023-06-26T12:51:07;6.03;;;5.53;;
16543;SDS011;8384;47.996;7.786;2023-06-26T12:53:35;6.27;;;5.77;;
16543;SDS011;8384;47.996;7.786;2023-06-26T12:56:01;6.03;;;5.53;;
16543;SDS011;8384;47.996;7.786;2023-06-26T12:58:26;6.00;;;5.47;;
16543;SDS011;8384;47.996;7.786;2023-06-26T13:00:51;6.20;;;5.60;;
16543;SDS011;8384;47.996;7.786;2023-06-26T13:03:18;5.90;;;5.40;;
16543;SDS011;8384;47.996;7.786;2023-06-26T13:05:45;6.33;;;5.83;;
16543;SDS011;8384;47.996;7.786;2023-06-26T13:08:11;7.27;;;6.03;;
16543;SDS011;8384;47.996;7.786;2023-06-26T13:10:36;6.37;;;5.77;;
16543;SDS011;8384;47.996;7.786;2023-06-26T13:13:01;5.90;;;5.40;;
16543;SDS011;8384;47.996;7.786;2023-06-26T13:15:27;5.23;;;4.73;;
16543;SDS011;8384;47.996;7.786;2023-06-26T13:17:53;5.43;;;4.60;;
16543;SDS011;8384;47.996;7.786;2023-06-26T13:20:18;4.77;;;4.37;;
16543;SDS011;8384;47.996;7.786;2023-06-26T13:22:43;5.37;;;4.57;;
16543;SDS011;8384;47.996;7.786;2023-06-26T13:25:08;5.57;;;5.17;;
16543;SDS011;8384;47.996;7.786;2023-06-26T13:27:34;5.70;;;5.30;;
16543;SDS011;8384;47.996;7.786;2023-06-26T13:29:59;6.07;;;5.57;;
16543;SDS011;8384;47.996;7.786;2023-06-26T13:32:25;6.40;;;5.90;;
16543;SDS011;8384;47.996;7.786;2023-06-26T13:34:50;6.27;;;5.60;;
16543;SDS011;8384;47.996;7.786;2023-06-26T13:37:15;7.63;;;5.93;;
16543;SDS011;8384;47.996;7.786;2023-06-26T13:39:40;6.20;;;5.60;;
16543;SDS011;8384;47.996;7.786;2023-06-26T13:42:06;6.57;;;5.97;;
16543;SDS011;8384;47.996;7.786;2023-06-26T13:44:31;5.60;;;5.20;;
16543;SDS011;8384;47.996;7.786;2023-06-26T13:46:57;6.57;;;6.00;;
16543;SDS011;8384;47.996;7.786;2023-06-26T13:49:22;7.00;;;5.80;;
16543;SDS011;8384;47.996;7.786;2023-06-26T13:51:47;6.07;;;5.60;;
16543;SDS011;8384;47.996;7.786;2023-06-26T13:54:13;6.57;;;5.90;;
16543;SDS011;8384;47.996;7.786;2023-06-26T13:56:38;6.20;;;5.70;;
16543;SDS011;8384;47.996;7.786;2023-06-26T13:59:03;5.63;;;5.23;;
16543;SDS011;8384;47.996;7.786;2023-06-26T14:01:29;6.17;;;5.53;;
16543;SDS011;8384;47.996;7.786;2023-06-26T14:03:54;6.20;;;5.63;;
16543;SDS011;8384;47.996;7.786;2023-06-26T14:06:20;5.30;;;4.90;;
16543;SDS011;8384;47.996;7.786;2023-06-26T14:08:45;5.10;;;4.70;;
16543;SDS011;8384;47.996;7.786;2023-06-26T14:11:10;5.27;;;4.87;;
16543;SDS011;8384;47.996;7.786;2023-06-26T14:13:35;4.90;;;4.50;;
16543;SDS011;8384;47.996;7.786;2023-06-26T14:16:01;5.50;;;4.60;;
16543;SDS011;8384;47.996;7.786;2023-06-26T14:18:26;4.93;;;4.43;;
16543;SDS011;8384;47.996;7.786;2023-06-26T14:20:53;4.60;;;3.90;;
16543;SDS011;8384;47.996;7.786;2023-06-26T14:23:18;4.00;;;3.70;;
16543;SDS011;8384;47.996;7.786;2023-06-26T14:25:43;3.87;;;3.53;;
16543;SDS011;8384;47.996;7.786;2023-06-26T14:28:09;4.10;;;3.50;;
16543;SDS011;8384;47.996;7.786;2023-06-26T14:30:34;3.50;;;3.20;;
16543;SDS011;8384;47.996;7.786;2023-06-26T14:32:59;4.43;;;3.07;;
16543;SDS011;8384;47.996;7.786;2023-06-26T14:35:24;3.43;;;3.10;;
16543;SDS011;8384;47.996;7.786;2023-06-26T14:37:50;3.63;;;3.20;;
16543;SDS011;8384;47.996;7.786;2023-06-26T14:40:15;4.83;;;3.20;;
16543;SDS011;8384;47.996;7.786;2023-06-26T14:42:41;3.93;;;3.53;;
16543;SDS011;8384;47.996;7.786;2023-06-26T14:45:08;4.03;;;3.73;;
16543;SDS011;8384;47.996;7.786;2023-06-26T14:47:33;4.00;;;3.50;;
16543;SDS011;8384;47.996;7.786;2023-06-26T14:49:59;4.10;;;3.57;;
16543;SDS011;8384;47.996;7.786;2023-06-26T14:52:25;4.20;;;3.90;;
16543;SDS011;8384;47.996;7.786;2023-06-26T14:54:50;4.17;;;3.53;;
16543;SDS011;8384;47.996;7.786;2023-06-26T14:57:15;3.80;;;3.50;;
16543;SDS011;8384;47.996;7.786;2023-06-26T14:59:41;4.00;;;3.70;;
16543;SDS011;8384;47.996;7.786;2023-06-26T15:02:07;4.00;;;3.70;;
16543;SDS011;8384;47.996;7.786;2023-06-26T15:04:32;4.17;;;3.77;;
16543;SDS011;8384;47.996;7.786;2023-06-26T15:06:57;4.20;;;3.80;;
16543;SDS011;8384;47.996;7.786;2023-06-26T15:09:23;4.70;;;4.03;;